sensor_id;sensor_type;location;lat;lon;timestamp;P1;durP1;ratioP1;P2;durP2;ratioP2
71462;SDS011;59266;52.608;13.260;2022-12-17T00:00:00;73.40;;;22.25;;
71462;SDS011;59266;52.608;13.260;2022-12-17T00:02:59;71.18;;;22.45;;
71462;SDS011;59266;52.608;13.260;2022-12-17T00:05:45;80.75;;;23.60;;
71462;SDS011;59266;52.608;13.260;2022-12-17T00:11:15;88.72;;;22.35;;
71462;SDS011;59266;52.608;13.260;2022-12-17T00:14:00;73.88;;;23.25;;
71462;SDS011;59266;52.608;13.260;2022-12-17T00:16:45;110.65;;;24.13;;
71462;SDS011;59266;52.608;13.260;2022-12-17T00:19:32;95.93;;;25.02;;
71462;SDS011;59266;52.608;13.260;2022-12-17T00:22:17;99.95;;;22.17;;
71462;SDS011;59266;52.608;13.260;2022-12-17T00:25:02;89.93;;;22.45;;
71462;SDS011;59266;52.608;13.260;2022-12-17T00:27:47;85.68;;;22.67;;
71462;SDS011;59266;52.608;13.260;2022-12-17T00:30:32;99.60;;;24.08;;
71462;SDS011;59266;52.608;13.260;2022-12-17T00:33:18;106.53;;;23.27;;
71462;SDS011;59266;52.608;13.260;2022-12-17T00:36:04;97.60;;;23.02;;
71462;SDS011;59266;52.608;13.260;2022-12-17T00:38:48;97.70;;;21.52;;
71462;SDS011;59266;52.608;13.260;2022-12-17T00:41:34;85.40;;;21.52;;
71462;SDS011;59266;52.608;13.260;2022-12-17T00:44:21;76.00;;;18.65;;
71462;SDS011;59266;52.608;13.260;2022-12-17T00:47:06;58.10;;;16.83;;
71462;SDS011;59266;52.608;13.260;2022-12-17T00:49:51;60.78;;;14.15;;
71462;SDS011;59266;52.608;13.260;2022-12-17T00:52:56;52.13;;;16.33;;
71462;SDS011;59266;52.608;13.260;2022-12-17T00:55:41;54.58;;;16.58;;
71462;SDS011;59266;52.608;13.260;2022-12-17T00:58:26;49.38;;;12.40;;
71462;SDS011;59266;52.608;13.260;2022-12-17T01:01:11;41.50;;;11.85;;
71462;SDS011;59266;52.608;13.260;2022-12-17T01:03:56;37.00;;;11.27;;
71462;SDS011;59266;52.608;13.260;2022-12-17T01:06:42;44.20;;;12.15;;
71462;SDS011;59266;52.608;13.260;2022-12-17T01:09:27;48.70;;;13.00;;
71462;SDS011;59266;52.608;13.260;2022-12-17T01:12:12;52.33;;;13.20;;
71462;SDS011;59266;52.608;13.260;2022-12-17T01:14:57;45.25;;;13.75;;
71462;SDS011;59266;52.608;13.260;2022-12-17T01:17:43;57.00;;;14.13;;
71462;SDS011;59266;52.608;13.260;2022-12-17T01:20:28;51.53;;;14.10;;
71462;SDS011;59266;52.608;13.260;2022-12-17T01:25:57;42.97;;;12.60;;
71462;SDS011;59266;52.608;13.260;2022-12-17T01:28:43;40.63;;;12.50;;
71462;SDS011;59266;52.608;13.260;2022-12-17T01:31:28;43.95;;;12.90;;
71462;SDS011;59266;52.608;13.260;2022-12-17T01:34:26;37.65;;;11.18;;
71462;SDS011;59266;52.608;13.260;2022-12-17T01:37:12;48.38;;;12.38;;
71462;SDS011;59266;52.608;13.260;2022-12-17T01:39:57;42.63;;;12.60;;
71462;SDS011;59266;52.608;13.260;2022-12-17T01:42:44;37.17;;;10.20;;
71462;SDS011;59266;52.608;13.260;2022-12-17T01:45:33;38.10;;;10.60;;
71462;SDS011;59266;52.608;13.260;2022-12-17T01:48:22;34.78;;;10.48;;
71462;SDS011;59266;52.608;13.260;2022-12-17T01:51:24;45.85;;;12.20;;
71462;SDS011;59266;52.608;13.260;2022-12-17T01:54:11;39.35;;;10.98;;
71462;SDS011;59266;52.608;13.260;2022-12-17T01:56:57;42.20;;;12.13;;
71462;SDS011;59266;52.608;13.260;2022-12-17T01:59:49;41.72;;;11.95;;
71462;SDS011;59266;52.608;13.260;2022-12-17T02:02:35;47.05;;;13.05;;
71462;SDS011;59266;52.608;13.260;2022-12-17T02:05:22;47.33;;;12.35;;
71462;SDS011;59266;52.608;13.260;2022-12-17T02:08:17;37.40;;;11.18;;
71462;SDS011;59266;52.608;13.260;2022-12-17T02:11:33;41.55;;;12.13;;
71462;SDS011;59266;52.608;13.260;2022-12-17T02:14:36;46.83;;;12.75;;
71462;SDS011;59266;52.608;13.260;2022-12-17T02:17:28;39.63;;;12.25;;
71462;SDS011;59266;52.608;13.260;2022-12-17T02:20:42;46.42;;;13.05;;
71462;SDS011;59266;52.608;13.260;2022-12-17T02:23:37;37.58;;;11.70;;
71462;SDS011;59266;52.608;13.260;2022-12-17T02:26:34;50.50;;;12.98;;
71462;SDS011;59266;52.608;13.260;2022-12-17T02:29:21;47.22;;;12.95;;
71462;SDS011;59266;52.608;13.260;2022-12-17T02:32:08;59.25;;;13.30;;
71462;SDS011;59266;52.608;13.260;2022-12-17T02:34:57;57.20;;;13.82;;
71462;SDS011;59266;52.608;13.260;2022-12-17T02:37:46;45.05;;;13.57;;
71462;SDS011;59266;52.608;13.260;2022-12-17T02:40:32;42.85;;;13.90;;
71462;SDS011;59266;52.608;13.260;2022-12-17T02:43:22;52.25;;;13.50;;
71462;SDS011;59266;52.608;13.260;2022-12-17T02:46:08;58.40;;;12.98;;
71462;SDS011;59266;52.608;13.260;2022-12-17T02:49:04;54.70;;;14.23;;
71462;SDS011;59266;52.608;13.260;2022-12-17T02:51:50;61.58;;;14.38;;
71462;SDS011;59266;52.608;13.260;2022-12-17T02:54:35;52.80;;;13.50;;
71462;SDS011;59266;52.608;13.260;2022-12-17T02:57:20;67.10;;;14.95;;
71462;SDS011;59266;52.608;13.260;2022-12-17T03:00:09;56.95;;;13.93;;
71462;SDS011;59266;52.608;13.260;2022-12-17T03:02:54;58.45;;;14.10;;
71462;SDS011;59266;52.608;13.260;2022-12-17T03:05:39;73.00;;;14.95;;
71462;SDS011;59266;52.608;13.260;2022-12-17T03:08:24;63.10;;;14.30;;
71462;SDS011;59266;52.608;13.260;2022-12-17T03:11:10;60.65;;;13.88;;
71462;SDS011;59266;52.608;13.260;2022-12-17T03:13:58;50.47;;;13.45;;
71462;SDS011;59266;52.608;13.260;2022-12-17T03:16:43;59.92;;;15.23;;
71462;SDS011;59266;52.608;13.260;2022-12-17T03:19:28;61.05;;;13.50;;
71462;SDS011;59266;52.608;13.260;2022-12-17T03:22:13;72.70;;;14.32;;
71462;SDS011;59266;52.608;13.260;2022-12-17T03:24:58;72.68;;;13.07;;
71462;SDS011;59266;52.608;13.260;2022-12-17T03:27:43;56.90;;;13.00;;
71462;SDS011;59266;52.608;13.260;2022-12-17T03:30:29;59.13;;;14.93;;
71462;SDS011;59266;52.608;13.260;2022-12-17T03:33:15;49.95;;;11.48;;
71462;SDS011;59266;52.608;13.260;2022-12-17T03:36:01;53.75;;;13.57;;
71462;SDS011;59266;52.608;13.260;2022-12-17T03:38:46;36.58;;;9.65;;
71462;SDS011;59266;52.608;13.260;2022-12-17T03:41:31;44.88;;;11.48;;
71462;SDS011;59266;52.608;13.260;2022-12-17T03:44:16;56.80;;;12.50;;
71462;SDS011;59266;52.608;13.260;2022-12-17T03:47:01;47.70;;;12.52;;
71462;SDS011;59266;52.608;13.260;2022-12-17T03:49:46;41.03;;;11.20;;
71462;SDS011;59266;52.608;13.260;2022-12-17T03:52:31;44.17;;;12.43;;
71462;SDS011;59266;52.608;13.260;2022-12-17T03:55:16;42.20;;;11.57;;
71462;SDS011;59266;52.608;13.260;2022-12-17T03:58:01;43.47;;;12.50;;
71462;SDS011;59266;52.608;13.260;2022-12-17T04:03:51;42.47;;;11.23;;
71462;SDS011;59266;52.608;13.260;2022-12-17T04:06:40;38.75;;;11.15;;
71462;SDS011;59266;52.608;13.260;2022-12-17T04:09:26;37.75;;;11.70;;
71462;SDS011;59266;52.608;13.260;2022-12-17T04:12:11;40.30;;;11.18;;
71462;SDS011;59266;52.608;13.260;2022-12-17T04:14:56;35.72;;;10.30;;
71462;SDS011;59266;52.608;13.260;2022-12-17T04:17:41;41.55;;;10.93;;
71462;SDS011;59266;52.608;13.260;2022-12-17T04:20:26;36.90;;;10.50;;
71462;SDS011;59266;52.608;13.260;2022-12-17T04:25:56;39.05;;;10.88;;
71462;SDS011;59266;52.608;13.260;2022-12-17T04:31:25;37.33;;;10.68;;
71462;SDS011;59266;52.608;13.260;2022-12-17T04:34:11;42.25;;;11.27;;
71462;SDS011;59266;52.608;13.260;2022-12-17T04:39:41;40.33;;;10.80;;
71462;SDS011;59266;52.608;13.260;2022-12-17T04:42:26;44.30;;;12.05;;
71462;SDS011;59266;52.608;13.260;2022-12-17T04:45:11;38.72;;;11.75;;
71462;SDS011;59266;52.608;13.260;2022-12-17T04:48:00;44.28;;;12.13;;
71462;SDS011;59266;52.608;13.260;2022-12-17T04:50:46;43.05;;;12.23;;
71462;SDS011;59266;52.608;13.260;2022-12-17T04:53:30;45.17;;;12.88;;
71462;SDS011;59266;52.608;13.260;2022-12-17T04:56:16;48.00;;;13.05;;
71462;SDS011;59266;52.608;13.260;2022-12-17T05:01:46;42.25;;;12.40;;
71462;SDS011;59266;52.608;13.260;2022-12-17T05:04:31;53.20;;;14.32;;
71462;SDS011;59266;52.608;13.260;2022-12-17T05:07:16;48.22;;;13.82;;
71462;SDS011;59266;52.608;13.260;2022-12-17T05:10:01;52.05;;;15.10;;
71462;SDS011;59266;52.608;13.260;2022-12-17T05:15:31;45.90;;;12.70;;
71462;SDS011;59266;52.608;13.260;2022-12-17T05:18:18;45.33;;;13.77;;
71462;SDS011;59266;52.608;13.260;2022-12-17T05:21:04;53.63;;;12.30;;
71462;SDS011;59266;52.608;13.260;2022-12-17T05:23:50;56.33;;;13.32;;
71462;SDS011;59266;52.608;13.260;2022-12-17T05:26:35;59.40;;;14.90;;
71462;SDS011;59266;52.608;13.260;2022-12-17T05:29:22;52.05;;;13.70;;
71462;SDS011;59266;52.608;13.260;2022-12-17T05:32:07;47.45;;;14.50;;
71462;SDS011;59266;52.608;13.260;2022-12-17T05:34:52;58.15;;;14.32;;
71462;SDS011;59266;52.608;13.260;2022-12-17T05:37:37;54.47;;;14.88;;
71462;SDS011;59266;52.608;13.260;2022-12-17T05:40:22;56.00;;;13.15;;
71462;SDS011;59266;52.608;13.260;2022-12-17T05:43:09;56.20;;;14.00;;
71462;SDS011;59266;52.608;13.260;2022-12-17T05:45:55;54.22;;;13.05;;
71462;SDS011;59266;52.608;13.260;2022-12-17T05:48:41;43.22;;;13.45;;
71462;SDS011;59266;52.608;13.260;2022-12-17T05:51:25;47.35;;;14.23;;
71462;SDS011;59266;52.608;13.260;2022-12-17T05:54:11;49.40;;;13.50;;
71462;SDS011;59266;52.608;13.260;2022-12-17T05:56:56;44.55;;;12.90;;
71462;SDS011;59266;52.608;13.260;2022-12-17T06:02:26;60.90;;;13.20;;
71462;SDS011;59266;52.608;13.260;2022-12-17T06:05:11;54.20;;;14.90;;
71462;SDS011;59266;52.608;13.260;2022-12-17T06:08:03;53.35;;;13.95;;
71462;SDS011;59266;52.608;13.260;2022-12-17T06:10:49;55.35;;;16.10;;
71462;SDS011;59266;52.608;13.260;2022-12-17T06:13:34;50.90;;;14.65;;
71462;SDS011;59266;52.608;13.260;2022-12-17T06:16:20;58.00;;;16.05;;
71462;SDS011;59266;52.608;13.260;2022-12-17T06:19:05;60.10;;;14.98;;
71462;SDS011;59266;52.608;13.260;2022-12-17T06:21:50;50.83;;;14.75;;
71462;SDS011;59266;52.608;13.260;2022-12-17T06:24:35;55.92;;;15.80;;
71462;SDS011;59266;52.608;13.260;2022-12-17T06:27:20;56.67;;;15.65;;
71462;SDS011;59266;52.608;13.260;2022-12-17T06:32:50;44.28;;;12.40;;
71462;SDS011;59266;52.608;13.260;2022-12-17T06:38:20;46.75;;;12.63;;
71462;SDS011;59266;52.608;13.260;2022-12-17T06:43:50;43.40;;;13.25;;
71462;SDS011;59266;52.608;13.260;2022-12-17T06:49:21;41.10;;;12.15;;
71462;SDS011;59266;52.608;13.260;2022-12-17T06:54:51;46.08;;;12.48;;
71462;SDS011;59266;52.608;13.260;2022-12-17T06:57:36;45.17;;;13.43;;
71462;SDS011;59266;52.608;13.260;2022-12-17T07:00:22;56.33;;;15.55;;
71462;SDS011;59266;52.608;13.260;2022-12-17T07:03:09;51.58;;;14.50;;
71462;SDS011;59266;52.608;13.260;2022-12-17T07:05:58;56.67;;;15.45;;
71462;SDS011;59266;52.608;13.260;2022-12-17T07:08:44;61.78;;;14.63;;
71462;SDS011;59266;52.608;13.260;2022-12-17T07:11:30;56.75;;;15.85;;
71462;SDS011;59266;52.608;13.260;2022-12-17T07:14:15;67.18;;;15.35;;
71462;SDS011;59266;52.608;13.260;2022-12-17T07:17:00;52.65;;;16.35;;
71462;SDS011;59266;52.608;13.260;2022-12-17T07:19:45;60.53;;;15.48;;
71462;SDS011;59266;52.608;13.260;2022-12-17T07:22:30;59.25;;;15.95;;
71462;SDS011;59266;52.608;13.260;2022-12-17T07:28:00;56.20;;;15.35;;
71462;SDS011;59266;52.608;13.260;2022-12-17T07:30:45;61.22;;;15.57;;
71462;SDS011;59266;52.608;13.260;2022-12-17T07:33:30;85.07;;;20.65;;
71462;SDS011;59266;52.608;13.260;2022-12-17T07:36:15;103.13;;;27.05;;
71462;SDS011;59266;52.608;13.260;2022-12-17T07:39:00;63.90;;;18.67;;
71462;SDS011;59266;52.608;13.260;2022-12-17T07:41:45;59.25;;;17.23;;
71462;SDS011;59266;52.608;13.260;2022-12-17T07:44:30;66.07;;;16.88;;
71462;SDS011;59266;52.608;13.260;2022-12-17T07:47:15;57.38;;;17.35;;
71462;SDS011;59266;52.608;13.260;2022-12-17T07:52:45;53.47;;;15.38;;
71462;SDS011;59266;52.608;13.260;2022-12-17T07:55:30;46.53;;;14.15;;
71462;SDS011;59266;52.608;13.260;2022-12-17T08:01:00;57.58;;;15.57;;
71462;SDS011;59266;52.608;13.260;2022-12-17T08:03:45;52.00;;;15.48;;
71462;SDS011;59266;52.608;13.260;2022-12-17T08:06:30;51.63;;;14.85;;
71462;SDS011;59266;52.608;13.260;2022-12-17T08:09:34;49.70;;;15.60;;
71462;SDS011;59266;52.608;13.260;2022-12-17T08:12:19;44.85;;;13.40;;
71462;SDS011;59266;52.608;13.260;2022-12-17T08:15:04;50.40;;;14.48;;
71462;SDS011;59266;52.608;13.260;2022-12-17T08:17:50;52.15;;;14.20;;
71462;SDS011;59266;52.608;13.260;2022-12-17T08:20:35;45.92;;;14.38;;
71462;SDS011;59266;52.608;13.260;2022-12-17T08:23:20;52.00;;;14.05;;
71462;SDS011;59266;52.608;13.260;2022-12-17T08:26:05;56.00;;;16.75;;
71462;SDS011;59266;52.608;13.260;2022-12-17T08:28:50;56.92;;;16.55;;
71462;SDS011;59266;52.608;13.260;2022-12-17T08:31:35;54.17;;;16.05;;
71462;SDS011;59266;52.608;13.260;2022-12-17T08:34:20;54.53;;;15.18;;
71462;SDS011;59266;52.608;13.260;2022-12-17T08:37:05;62.67;;;15.40;;
71462;SDS011;59266;52.608;13.260;2022-12-17T08:39:50;70.00;;;16.65;;
71462;SDS011;59266;52.608;13.260;2022-12-17T08:42:35;56.78;;;14.15;;
71462;SDS011;59266;52.608;13.260;2022-12-17T08:45:21;58.53;;;16.70;;
71462;SDS011;59266;52.608;13.260;2022-12-17T08:48:06;48.78;;;14.15;;
71462;SDS011;59266;52.608;13.260;2022-12-17T08:50:52;54.97;;;15.15;;
71462;SDS011;59266;52.608;13.260;2022-12-17T08:53:37;60.00;;;14.27;;
71462;SDS011;59266;52.608;13.260;2022-12-17T08:59:07;108.07;;;24.70;;
71462;SDS011;59266;52.608;13.260;2022-12-17T09:01:52;72.32;;;19.00;;
71462;SDS011;59266;52.608;13.260;2022-12-17T09:04:37;70.93;;;17.27;;
71462;SDS011;59266;52.608;13.260;2022-12-17T09:07:22;66.15;;;17.95;;
71462;SDS011;59266;52.608;13.260;2022-12-17T09:10:10;72.15;;;16.75;;
71462;SDS011;59266;52.608;13.260;2022-12-17T09:12:59;62.03;;;16.60;;
71462;SDS011;59266;52.608;13.260;2022-12-17T09:15:49;57.42;;;14.82;;
71462;SDS011;59266;52.608;13.260;2022-12-17T09:18:36;72.93;;;16.80;;
71462;SDS011;59266;52.608;13.260;2022-12-17T09:21:21;72.57;;;16.15;;
71462;SDS011;59266;52.608;13.260;2022-12-17T09:24:08;60.05;;;13.15;;
71462;SDS011;59266;52.608;13.260;2022-12-17T09:26:54;58.75;;;15.23;;
71462;SDS011;59266;52.608;13.260;2022-12-17T09:29:39;54.42;;;15.48;;
71462;SDS011;59266;52.608;13.260;2022-12-17T09:35:08;53.50;;;14.82;;
71462;SDS011;59266;52.608;13.260;2022-12-17T09:37:54;56.03;;;14.75;;
71462;SDS011;59266;52.608;13.260;2022-12-17T09:40:40;57.63;;;14.63;;
71462;SDS011;59266;52.608;13.260;2022-12-17T09:43:31;59.10;;;15.57;;
71462;SDS011;59266;52.608;13.260;2022-12-17T09:46:39;56.13;;;13.68;;
71462;SDS011;59266;52.608;13.260;2022-12-17T09:49:31;72.00;;;15.32;;
71462;SDS011;59266;52.608;13.260;2022-12-17T09:52:28;57.30;;;15.07;;
71462;SDS011;59266;52.608;13.260;2022-12-17T09:55:20;49.65;;;13.93;;
71462;SDS011;59266;52.608;13.260;2022-12-17T09:58:17;56.33;;;14.50;;
71462;SDS011;59266;52.608;13.260;2022-12-17T10:01:31;60.65;;;13.93;;
71462;SDS011;59266;52.608;13.260;2022-12-17T10:04:19;63.55;;;13.55;;
71462;SDS011;59266;52.608;13.260;2022-12-17T10:07:12;62.60;;;16.15;;
71462;SDS011;59266;52.608;13.260;2022-12-17T10:10:00;49.60;;;13.75;;
71462;SDS011;59266;52.608;13.260;2022-12-17T10:12:55;64.65;;;15.32;;
71462;SDS011;59266;52.608;13.260;2022-12-17T10:15:41;55.15;;;14.18;;
71462;SDS011;59266;52.608;13.260;2022-12-17T10:18:27;52.00;;;13.85;;
71462;SDS011;59266;52.608;13.260;2022-12-17T10:21:13;64.53;;;15.88;;
71462;SDS011;59266;52.608;13.260;2022-12-17T10:24:05;62.53;;;13.20;;
71462;SDS011;59266;52.608;13.260;2022-12-17T10:26:52;56.42;;;13.70;;
71462;SDS011;59266;52.608;13.260;2022-12-17T10:29:36;44.92;;;13.07;;
71462;SDS011;59266;52.608;13.260;2022-12-17T10:32:24;57.55;;;14.23;;
71462;SDS011;59266;52.608;13.260;2022-12-17T10:35:17;48.17;;;12.68;;
71462;SDS011;59266;52.608;13.260;2022-12-17T10:38:10;57.50;;;13.63;;
71462;SDS011;59266;52.608;13.260;2022-12-17T10:41:17;56.97;;;12.15;;
71462;SDS011;59266;52.608;13.260;2022-12-17T10:44:22;62.15;;;13.57;;
71462;SDS011;59266;52.608;13.260;2022-12-17T10:47:15;46.20;;;12.63;;
71462;SDS011;59266;52.608;13.260;2022-12-17T10:50:03;51.90;;;12.23;;
71462;SDS011;59266;52.608;13.260;2022-12-17T10:55:45;45.20;;;12.05;;
71462;SDS011;59266;52.608;13.260;2022-12-17T10:58:32;51.15;;;13.82;;
71462;SDS011;59266;52.608;13.260;2022-12-17T11:01:21;53.30;;;13.45;;
71462;SDS011;59266;52.608;13.260;2022-12-17T11:04:25;46.85;;;13.52;;
71462;SDS011;59266;52.608;13.260;2022-12-17T11:07:28;51.05;;;13.23;;
71462;SDS011;59266;52.608;13.260;2022-12-17T11:10:27;51.33;;;13.45;;
71462;SDS011;59266;52.608;13.260;2022-12-17T11:13:27;62.05;;;15.90;;
71462;SDS011;59266;52.608;13.260;2022-12-17T11:16:23;46.17;;;14.48;;
71462;SDS011;59266;52.608;13.260;2022-12-17T11:21:56;53.22;;;13.43;;
71462;SDS011;59266;52.608;13.260;2022-12-17T11:24:59;56.60;;;13.90;;
71462;SDS011;59266;52.608;13.260;2022-12-17T11:27:52;43.03;;;12.82;;
71462;SDS011;59266;52.608;13.260;2022-12-17T11:30:50;46.67;;;12.77;;
71462;SDS011;59266;52.608;13.260;2022-12-17T11:33:43;52.83;;;15.88;;
71462;SDS011;59266;52.608;13.260;2022-12-17T11:36:41;52.10;;;13.65;;
71462;SDS011;59266;52.608;13.260;2022-12-17T11:42:57;44.13;;;12.00;;
71462;SDS011;59266;52.608;13.260;2022-12-17T11:45:53;47.95;;;13.63;;
71462;SDS011;59266;52.608;13.260;2022-12-17T11:48:53;47.35;;;13.05;;
71462;SDS011;59266;52.608;13.260;2022-12-17T11:51:54;45.75;;;12.63;;
71462;SDS011;59266;52.608;13.260;2022-12-17T11:55:10;44.97;;;12.20;;
71462;SDS011;59266;52.608;13.260;2022-12-17T11:58:21;50.42;;;12.05;;
71462;SDS011;59266;52.608;13.260;2022-12-17T12:01:21;54.25;;;11.95;;
71462;SDS011;59266;52.608;13.260;2022-12-17T12:07:17;40.97;;;12.20;;
71462;SDS011;59266;52.608;13.260;2022-12-17T12:16:48;42.47;;;10.35;;
71462;SDS011;59266;52.608;13.260;2022-12-17T12:19:15;57.97;;;13.98;;
71462;SDS011;59266;52.608;13.260;2022-12-17T12:22:22;46.40;;;13.32;;
71462;SDS011;59266;52.608;13.260;2022-12-17T12:25:37;53.72;;;16.05;;
71462;SDS011;59266;52.608;13.260;2022-12-17T12:31:36;47.45;;;10.98;;
71462;SDS011;59266;52.608;13.260;2022-12-17T12:34:41;43.80;;;12.57;;
71462;SDS011;59266;52.608;13.260;2022-12-17T12:37:28;43.85;;;12.15;;
71462;SDS011;59266;52.608;13.260;2022-12-17T12:43:27;39.40;;;12.30;;
71462;SDS011;59266;52.608;13.260;2022-12-17T12:52:20;40.60;;;12.05;;
71462;SDS011;59266;52.608;13.260;2022-12-17T12:55:08;45.28;;;11.88;;
71462;SDS011;59266;52.608;13.260;2022-12-17T13:03:31;50.92;;;16.23;;
71462;SDS011;59266;52.608;13.260;2022-12-17T13:11:42;46.72;;;13.05;;
71462;SDS011;59266;52.608;13.260;2022-12-17T13:14:35;47.28;;;12.20;;
71462;SDS011;59266;52.608;13.260;2022-12-17T13:17:24;63.20;;;17.52;;
71462;SDS011;59266;52.608;13.260;2022-12-17T13:24:51;43.38;;;11.70;;
71462;SDS011;59266;52.608;13.260;2022-12-17T13:27:29;52.72;;;12.30;;
71462;SDS011;59266;52.608;13.260;2022-12-17T13:29:58;45.15;;;13.05;;
71462;SDS011;59266;52.608;13.260;2022-12-17T13:33:02;92.35;;;28.20;;
71462;SDS011;59266;52.608;13.260;2022-12-17T13:38:42;51.22;;;15.88;;
71462;SDS011;59266;52.608;13.260;2022-12-17T13:41:32;50.30;;;13.43;;
71462;SDS011;59266;52.608;13.260;2022-12-17T13:44:01;58.72;;;18.15;;
71462;SDS011;59266;52.608;13.260;2022-12-17T13:46:42;68.82;;;20.08;;
71462;SDS011;59266;52.608;13.260;2022-12-17T13:52:00;51.53;;;13.70;;
71462;SDS011;59266;52.608;13.260;2022-12-17T13:54:34;45.38;;;12.32;;
71462;SDS011;59266;52.608;13.260;2022-12-17T13:57:08;44.85;;;12.93;;
71462;SDS011;59266;52.608;13.260;2022-12-17T13:59:38;41.72;;;12.05;;
71462;SDS011;59266;52.608;13.260;2022-12-17T14:02:04;49.10;;;12.85;;
71462;SDS011;59266;52.608;13.260;2022-12-17T14:04:31;43.17;;;11.77;;
71462;SDS011;59266;52.608;13.260;2022-12-17T14:06:58;44.25;;;11.85;;
71462;SDS011;59266;52.608;13.260;2022-12-17T14:09:31;38.75;;;10.73;;
71462;SDS011;59266;52.608;13.260;2022-12-17T14:12:02;40.22;;;11.48;;
71462;SDS011;59266;52.608;13.260;2022-12-17T14:17:23;37.95;;;11.13;;
71462;SDS011;59266;52.608;13.260;2022-12-17T14:22:36;40.13;;;11.80;;
71462;SDS011;59266;52.608;13.260;2022-12-17T14:25:09;42.72;;;11.10;;
71462;SDS011;59266;52.608;13.260;2022-12-17T14:27:47;38.72;;;11.05;;
71462;SDS011;59266;52.608;13.260;2022-12-17T14:30:19;77.90;;;12.07;;
71462;SDS011;59266;52.608;13.260;2022-12-17T14:32:47;48.08;;;12.38;;
71462;SDS011;59266;52.608;13.260;2022-12-17T14:35:24;53.72;;;11.25;;
71462;SDS011;59266;52.608;13.260;2022-12-17T14:37:53;35.28;;;10.25;;
71462;SDS011;59266;52.608;13.260;2022-12-17T14:40:20;54.53;;;15.52;;
71462;SDS011;59266;52.608;13.260;2022-12-17T14:42:49;47.20;;;11.55;;
71462;SDS011;59266;52.608;13.260;2022-12-17T14:47:54;43.60;;;12.82;;
71462;SDS011;59266;52.608;13.260;2022-12-17T14:50:33;45.05;;;11.35;;
71462;SDS011;59266;52.608;13.260;2022-12-17T14:53:01;38.33;;;10.32;;
71462;SDS011;59266;52.608;13.260;2022-12-17T15:00:41;35.47;;;10.00;;
71462;SDS011;59266;52.608;13.260;2022-12-17T15:03:18;39.50;;;10.10;;
71462;SDS011;59266;52.608;13.260;2022-12-17T15:05:50;37.50;;;10.70;;
71462;SDS011;59266;52.608;13.260;2022-12-17T15:08:18;41.47;;;13.20;;
71462;SDS011;59266;52.608;13.260;2022-12-17T15:10:45;41.83;;;11.68;;
71462;SDS011;59266;52.608;13.260;2022-12-17T15:13:12;40.92;;;11.88;;
71462;SDS011;59266;52.608;13.260;2022-12-17T15:15:38;62.90;;;16.30;;
71462;SDS011;59266;52.608;13.260;2022-12-17T15:18:05;39.38;;;10.75;;
71462;SDS011;59266;52.608;13.260;2022-12-17T15:20:35;39.45;;;11.02;;
71462;SDS011;59266;52.608;13.260;2022-12-17T15:23:02;43.03;;;12.02;;
71462;SDS011;59266;52.608;13.260;2022-12-17T15:25:29;47.92;;;13.10;;
71462;SDS011;59266;52.608;13.260;2022-12-17T15:27:55;44.60;;;13.20;;
71462;SDS011;59266;52.608;13.260;2022-12-17T15:30:22;42.92;;;12.38;;
71462;SDS011;59266;52.608;13.260;2022-12-17T15:32:48;43.55;;;12.40;;
71462;SDS011;59266;52.608;13.260;2022-12-17T15:35:17;50.97;;;13.48;;
71462;SDS011;59266;52.608;13.260;2022-12-17T15:37:43;47.70;;;14.23;;
71462;SDS011;59266;52.608;13.260;2022-12-17T15:40:10;46.00;;;13.98;;
71462;SDS011;59266;52.608;13.260;2022-12-17T15:42:37;48.13;;;13.82;;
71462;SDS011;59266;52.608;13.260;2022-12-17T15:45:31;57.50;;;12.93;;
71462;SDS011;59266;52.608;13.260;2022-12-17T15:47:57;60.38;;;12.30;;
71462;SDS011;59266;52.608;13.260;2022-12-17T15:50:24;56.80;;;10.43;;
71462;SDS011;59266;52.608;13.260;2022-12-17T15:52:50;45.65;;;11.43;;
71462;SDS011;59266;52.608;13.260;2022-12-17T15:55:17;52.03;;;12.32;;
71462;SDS011;59266;52.608;13.260;2022-12-17T15:57:43;49.90;;;12.43;;
71462;SDS011;59266;52.608;13.260;2022-12-17T16:00:10;41.53;;;11.73;;
71462;SDS011;59266;52.608;13.260;2022-12-17T16:02:37;55.80;;;16.13;;
71462;SDS011;59266;52.608;13.260;2022-12-17T16:05:05;60.63;;;13.90;;
71462;SDS011;59266;52.608;13.260;2022-12-17T16:07:32;54.00;;;15.18;;
71462;SDS011;59266;52.608;13.260;2022-12-17T16:10:01;53.97;;;16.35;;
71462;SDS011;59266;52.608;13.260;2022-12-17T16:12:30;57.85;;;13.82;;
71462;SDS011;59266;52.608;13.260;2022-12-17T16:15:01;51.58;;;12.48;;
71462;SDS011;59266;52.608;13.260;2022-12-17T16:17:28;62.70;;;13.35;;
71462;SDS011;59266;52.608;13.260;2022-12-17T16:19:54;51.45;;;12.75;;
71462;SDS011;59266;52.608;13.260;2022-12-17T16:22:21;57.05;;;13.52;;
71462;SDS011;59266;52.608;13.260;2022-12-17T16:24:48;59.78;;;13.75;;
71462;SDS011;59266;52.608;13.260;2022-12-17T16:27:15;48.80;;;12.98;;
71462;SDS011;59266;52.608;13.260;2022-12-17T16:29:46;50.85;;;12.30;;
71462;SDS011;59266;52.608;13.260;2022-12-17T16:32:14;74.47;;;12.52;;
71462;SDS011;59266;52.608;13.260;2022-12-17T16:34:43;50.85;;;11.90;;
71462;SDS011;59266;52.608;13.260;2022-12-17T16:37:12;54.90;;;13.25;;
71462;SDS011;59266;52.608;13.260;2022-12-17T16:39:39;63.88;;;15.38;;
71462;SDS011;59266;52.608;13.260;2022-12-17T16:42:06;76.35;;;14.82;;
71462;SDS011;59266;52.608;13.260;2022-12-17T16:44:33;60.45;;;14.07;;
71462;SDS011;59266;52.608;13.260;2022-12-17T16:47:00;50.47;;;13.75;;
71462;SDS011;59266;52.608;13.260;2022-12-17T16:49:31;65.95;;;14.68;;
71462;SDS011;59266;52.608;13.260;2022-12-17T16:51:58;59.05;;;14.77;;
71462;SDS011;59266;52.608;13.260;2022-12-17T16:54:29;56.55;;;14.80;;
71462;SDS011;59266;52.608;13.260;2022-12-17T16:56:57;64.30;;;15.38;;
71462;SDS011;59266;52.608;13.260;2022-12-17T16:59:25;52.47;;;13.82;;
71462;SDS011;59266;52.608;13.260;2022-12-17T17:01:54;50.60;;;13.50;;
71462;SDS011;59266;52.608;13.260;2022-12-17T17:04:22;84.43;;;12.55;;
71462;SDS011;59266;52.608;13.260;2022-12-17T17:06:51;53.33;;;12.50;;
71462;SDS011;59266;52.608;13.260;2022-12-17T17:09:21;73.93;;;14.77;;
71462;SDS011;59266;52.608;13.260;2022-12-17T17:11:54;101.88;;;13.90;;
71462;SDS011;59266;52.608;13.260;2022-12-17T17:14:22;59.85;;;14.63;;
71462;SDS011;59266;52.608;13.260;2022-12-17T17:16:50;64.35;;;15.52;;
71462;SDS011;59266;52.608;13.260;2022-12-17T17:19:18;60.90;;;14.15;;
71462;SDS011;59266;52.608;13.260;2022-12-17T17:21:47;57.55;;;13.07;;
71462;SDS011;59266;52.608;13.260;2022-12-17T17:24:16;57.47;;;14.15;;
71462;SDS011;59266;52.608;13.260;2022-12-17T17:26:47;67.78;;;15.55;;
71462;SDS011;59266;52.608;13.260;2022-12-17T17:29:14;66.82;;;14.48;;
71462;SDS011;59266;52.608;13.260;2022-12-17T17:31:46;94.65;;;13.57;;
71462;SDS011;59266;52.608;13.260;2022-12-17T17:34:33;50.00;;;12.80;;
71462;SDS011;59266;52.608;13.260;2022-12-17T17:37:01;77.18;;;14.93;;
71462;SDS011;59266;52.608;13.260;2022-12-17T17:39:28;81.53;;;15.88;;